#airplanes

Here can be your content

Promote Yourself on Twipu

Promote Yourself on Twipu
J-F Muguet
6 minutes ago

Beautiful ⚡️Ducati S2R by coogar_custom shot for caferacermagazine anniversary issue #100 out now! #caferacer #ducati #plane #warplane #airplanes #canon #canon_photos #profoto #profotoglobal à Aérodrome de… https://www.instagram.com/p/By5VXhbIwlm/?igshid=1m95un75rr71r …

0
0
0
LPPT METAR
30 minutes ago

LPPT 191430Z 23011KT 200V260 9999 SCT025 BKN040 22/14 Q1016 #aviation #airplanes #metar #weather #avgeek #aviationlovers

0
0
0
Vintage Aircraft Support Equipment #snapback  Hat/Cap - Mesh trucker style w/Embroidered Logo - Available on #ebay #shopsmall #ebayROCteam #hats #airplanes #vintagestyle 
https://buff.ly/2XYeIdz  https://buff.ly/2XYeIdz 

Vintage Aircraft Support Equipment #snapback Hat/Cap - Mesh trucker style w/Embroidered Logo - Available on #ebay #shopsmall #ebayROCteam #hats #airplanes #vintagestyle https://buff.ly/2XYeIdz  https://buff.ly/2XYeIdz 

LPPT 191400Z 22012KT 190V250 9999 FEW025 BKN042 23/15 Q1016 #aviation #airplanes #metar #weather #avgeek #aviationlovers

0
0
0

LPPT 191330Z 23012KT 9999 SCT026 22/14 Q1017 #aviation #airplanes #metar #weather #avgeek #aviationlovers

0
0
0
Back for the FOURTH year in a row in the @eaa #osh19 Forums!  I Will be presenting on "Buying Your First Airplane" w/ Q&A session for potential buyers on how to save money & avoid common acquisition mistakes #avgeek #aviation #ga #airshow #generalaviation #pilot #airplanes #pilot

Back for the FOURTH year in a row in the @eaa #osh19 Forums! I Will be presenting on "Buying Your First Airplane" w/ Q&A session for potential buyers on how to save money & avoid common acquisition mistakes #avgeek #aviation #ga #airshow #generalaviation #pilot #airplanes #pilot

LPPT 191300Z 22011KT 9999 SCT025 23/15 Q1017 #aviation #airplanes #metar #weather #avgeek #aviationlovers

0
0
0

With plans to purchase @flybe, Branson aims at consolidating short-haul regional market for feeder services. http://ow.ly/TCUW50uHZiU  #airlines #airplanes #regionalairlines #smallcommunityairservice

1
0
1

CAE announced first three winners of its 2019 CAE Women in Flight scholarship program who will be CAE's new Women in Flight ambassadors promote diversity in aviation. http://ow.ly/GiWC50uHYXa  #genderbalance #airlines #airplanes #pilotshortage #diversity #womeininaviation

0
0
0

LPPT 191230Z 23011KT 190V260 9999 SCT020 22/15 Q1017 #aviation #airplanes #metar #weather #avgeek #aviationlovers

0
1
0

LPPT 191200Z 22012KT 9999 SCT018 22/16 Q1017 #aviation #airplanes #metar #weather #avgeek #aviationlovers

0
0
0
Wondering how #Airplanes fly? its due to the low pressure above the wing & higher pressure below the wing.
⠀
For more details join us for a 1-day course in Oxford Airport. We are running a Introduction to ATPL on the 28th of July. To register click link: http://buff.ly/2wSMncZ 

Wondering how #Airplanes fly? its due to the low pressure above the wing & higher pressure below the wing. ⠀ For more details join us for a 1-day course in Oxford Airport. We are running a Introduction to ATPL on the 28th of July. To register click link: http://buff.ly/2wSMncZ 

United pilots invoke scope clause in protesting United-Avianca deal. http://ow.ly/YO0T50uHWsI  #pilotshortage #airlines #airplanes #pilots #scope

0
1
1

Winnebago Earnings Sluggish As Sales Fall Again. It starts with a chart. Scope it out. Use critical thinking. Buy a Winnebago for your mom with the puts. #Innovateordie #OptionsTrading #options #optionscatalyst #airplanes #airbnb #headandshoulders

0
0
1

LPPT 191130Z 22010KT 9999 SCT016 SCT048 21/16 Q1017 #aviation #airplanes #metar #weather #avgeek #aviationlovers

0
0
0
Next Page